Time;durP1;ratioP1;P1;durP2;ratioP2;P2;SDS_P1;SDS_P2;PMS_P1;PMS_P2;Temp;Humidity;BMP_temperature;BMP_pressure;BME280_temperature;BME280_humidity;BME280_pressure;Samples;Min_cycle;Max_cycle;Signal;HPM_P1;HPM_P2
2022/07/27 00:01:14;;;;;;;13.03;12.63;;;23.00;18.10;;;;;;6217470;23;20440;-72
2022/07/27 00:03:40;;;;;;;13.13;12.53;;;23.00;18.00;;;;;;6244777;23;20370;-72
2022/07/27 00:06:07;;;;;;;12.80;12.30;;;23.10;18.10;;;;;;6217753;23;20505;-72
2022/07/27 00:08:33;;;;;;;13.63;12.93;;;23.20;17.80;;;;;;6243318;23;20366;-72
2022/07/27 00:10:59;;;;;;;13.60;13.10;;;23.30;17.90;;;;;;6217426;23;20385;-72
2022/07/27 00:13:25;;;;;;;13.07;12.50;;;23.20;18.20;;;;;;6217830;23;20378;-72
2022/07/27 00:15:51;;;;;;;12.63;12.13;;;23.20;18.10;;;;;;6217661;23;20390;-72
2022/07/27 00:18:17;;;;;;;13.40;12.90;;;23.10;18.20;;;;;;6217982;23;20413;-72
2022/07/27 00:20:43;;;;;;;13.93;13.43;;;23.10;18.40;;;;;;6217286;23;20738;-72
2022/07/27 00:23:09;;;;;;;14.10;13.40;;;23.10;18.40;;;;;;6217847;23;20492;-72
2022/07/27 00:25:35;;;;;;;14.03;13.10;;;22.90;18.80;;;;;;6244478;23;20544;-72
2022/07/27 00:28:02;;;;;;;13.40;12.70;;;22.90;19.00;;;;;;6218179;23;20160;-72
2022/07/27 00:30:28;;;;;;;13.40;12.90;;;23.00;19.30;;;;;;6217517;23;20389;-72
2022/07/27 00:32:55;;;;;;;14.00;13.10;;;23.00;19.00;;;;;;6217801;23;20834;-72
2022/07/27 00:35:22;;;;;;;13.27;12.77;;;23.10;19.20;;;;;;6217862;23;20159;-72
2022/07/27 00:37:48;;;;;;;13.73;13.10;;;23.10;18.90;;;;;;6217475;23;20689;-72
2022/07/27 00:40:14;;;;;;;13.53;12.93;;;23.00;19.10;;;;;;6217581;23;20437;-72
2022/07/27 00:42:40;;;;;;;14.10;13.50;;;22.60;20.00;;;;;;6217415;23;20382;-72
2022/07/27 00:45:06;;;;;;;14.07;13.33;;;22.50;19.90;;;;;;6217532;23;20449;-72
2022/07/27 00:47:32;;;;;;;13.90;12.83;;;22.30;20.50;;;;;;6217465;23;20148;-72
2022/07/27 00:49:59;;;;;;;13.47;12.90;;;22.30;20.50;;;;;;6218159;23;20405;-72
2022/07/27 00:52:26;;;;;;;13.80;13.30;;;22.20;20.70;;;;;;6219262;23;20819;-72
2022/07/27 00:54:53;;;;;;;14.23;13.53;;;22.50;20.10;;;;;;6219473;23;20382;-72
2022/07/27 00:57:19;;;;;;;13.33;12.93;;;22.70;19.70;;;;;;6219423;23;20786;-72
2022/07/27 00:59:44;;;;;;;13.53;12.93;;;22.90;19.40;;;;;;6219389;23;20410;-72
2022/07/27 01:02:10;;;;;;;13.90;13.40;;;22.90;19.40;;;;;;6219126;23;20378;-72
2022/07/27 01:04:36;;;;;;;13.27;12.77;;;22.80;19.50;;;;;;6219402;23;20588;-73
2022/07/27 01:07:03;;;;;;;13.37;12.57;;;22.90;19.40;;;;;;6219247;23;20187;-72
2022/07/27 01:12:16;;;;;;;13.43;12.83;;;23.00;19.20;;;;;;6245987;23;20362;-72
2022/07/27 01:14:42;;;;;;;13.37;12.67;;;23.00;19.40;;;;;;6219729;23;20382;-72
2022/07/27 01:17:08;;;;;;;13.80;13.30;;;23.10;19.10;;;;;;6219470;23;20382;-72
2022/07/27 01:19:34;;;;;;;14.20;13.40;;;23.10;19.10;;;;;;6219403;23;20213;-72
2022/07/27 01:22:01;;;;;;;13.00;12.50;;;23.10;19.10;;;;;;6218819;23;20382;-72
2022/07/27 01:24:27;;;;;;;13.30;12.70;;;22.50;20.20;;;;;;6219244;23;20757;-72
2022/07/27 01:26:53;;;;;;;13.33;12.83;;;22.50;20.20;;;;;;6218962;23;20428;-72
2022/07/27 01:29:18;;;;;;;13.43;12.80;;;22.70;19.90;;;;;;6219106;23;20151;-72
2022/07/27 01:31:44;;;;;;;12.80;12.30;;;22.30;20.80;;;;;;6245744;23;20515;-72
2022/07/27 01:34:10;;;;;;;14.17;13.47;;;21.90;21.30;;;;;;6246005;23;20142;-72
2022/07/27 01:36:36;;;;;;;13.17;12.67;;;22.20;20.90;;;;;;6219159;23;20159;-72
2022/07/27 01:39:02;;;;;;;13.57;12.83;;;22.20;20.90;;;;;;6218799;23;20155;-72
2022/07/27 01:41:28;;;;;;;13.33;12.83;;;22.40;20.70;;;;;;6244551;23;20229;-72
2022/07/27 01:43:54;;;;;;;13.83;13.33;;;22.30;20.80;;;;;;6218859;23;20382;-72
2022/07/27 01:46:19;;;;;;;13.73;13.23;;;22.40;20.70;;;;;;6219116;23;20228;-72
2022/07/27 01:48:45;;;;;;;14.13;13.47;;;22.50;20.60;;;;;;6218798;23;20378;-72
2022/07/27 01:51:11;;;;;;;14.37;13.57;;;22.10;21.20;;;;;;6216827;23;20226;-72
2022/07/27 01:53:36;;;;;;;14.17;13.43;;;21.60;22.30;;;;;;6216780;23;20151;-72
2022/07/27 01:56:02;;;;;;;14.17;13.47;;;21.40;22.60;;;;;;6243991;23;20599;-72
2022/07/27 01:58:28;;;;;;;14.60;13.70;;;21.40;22.60;;;;;;6217951;23;20197;-72
2022/07/27 02:00:54;;;;;;;13.53;13.03;;;21.40;22.60;;;;;;6218432;23;20382;-72
2022/07/27 02:03:20;;;;;;;14.57;13.33;;;21.50;22.70;;;;;;6218845;23;20159;-72
2022/07/27 02:05:45;;;;;;;13.60;13.00;;;21.90;22.20;;;;;;6218667;23;20175;-72
2022/07/27 02:08:12;;;;;;;13.53;12.93;;;22.10;21.80;;;;;;6218900;23;20152;-72
2022/07/27 02:12:34;;;;;;;14.47;13.87;;;22.30;21.30;;;;;;6219047;23;20160;-73
2022/07/27 02:13:24;;;;;;;14.17;13.57;;;22.40;20.70;;;;;;6245254;23;20381;-72
2022/07/27 02:15:50;;;;;;;13.70;12.97;;;22.50;20.50;;;;;;6218731;23;20388;-72
2022/07/27 02:18:15;;;;;;;14.00;13.23;;;22.60;20.60;;;;;;6218604;23;20402;-72
2022/07/27 02:20:41;;;;;;;13.70;13.20;;;22.60;20.50;;;;;;6218465;23;20213;-72
2022/07/27 02:23:07;;;;;;;13.33;12.77;;;22.50;20.50;;;;;;6218571;23;20189;-73
2022/07/27 02:25:34;;;;;;;14.03;13.37;;;22.60;20.60;;;;;;6244339;23;20191;-72
2022/07/27 02:28:00;;;;;;;13.50;13.00;;;22.60;20.40;;;;;;6218413;23;20189;-72
2022/07/27 02:30:26;;;;;;;13.53;12.83;;;22.60;20.70;;;;;;6218320;23;20383;-72
2022/07/27 02:32:52;;;;;;;13.47;12.70;;;22.50;20.80;;;;;;6245403;23;20381;-72
2022/07/27 02:35:18;;;;;;;14.00;13.40;;;22.40;20.80;;;;;;6218957;23;20436;-72
2022/07/27 02:37:44;;;;;;;13.97;13.47;;;22.40;20.90;;;;;;6245439;23;20223;-72
2022/07/27 02:40:11;;;;;;;14.10;13.60;;;22.00;21.80;;;;;;6218128;23;20406;-72
2022/07/27 02:42:36;;;;;;;13.47;12.97;;;22.10;21.90;;;;;;6218864;23;20204;-72
2022/07/27 02:45:02;;;;;;;14.00;13.40;;;22.20;21.60;;;;;;6218385;23;20500;-72
2022/07/27 02:47:28;;;;;;;14.37;13.83;;;21.70;22.90;;;;;;6248345;23;20475;-72
2022/07/27 02:49:54;;;;;;;14.50;13.90;;;21.20;23.40;;;;;;6246648;23;20386;-72
2022/07/27 02:52:19;;;;;;;15.33;14.53;;;21.60;22.80;;;;;;6218306;23;20238;-72
2022/07/27 02:54:45;;;;;;;13.40;12.90;;;21.90;22.20;;;;;;6218396;23;20162;-73
2022/07/27 02:57:11;;;;;;;14.43;13.83;;;22.10;22.60;;;;;;6218320;23;20205;-72
2022/07/27 02:59:37;;;;;;;14.30;13.43;;;21.70;22.80;;;;;;6245170;23;20143;-72
2022/07/27 03:02:02;;;;;;;14.40;13.70;;;21.30;23.40;;;;;;6218407;23;20159;-72
2022/07/27 03:04:28;;;;;;;14.73;13.93;;;20.90;24.30;;;;;;6218240;23;20205;-72
2022/07/27 03:06:54;;;;;;;14.60;14.00;;;21.20;23.90;;;;;;6218424;23;20237;-72
2022/07/27 03:09:19;;;;;;;14.60;13.87;;;21.60;23.20;;;;;;6218152;23;20159;-72
2022/07/27 03:11:45;;;;;;;15.40;14.80;;;20.90;25.10;;;;;;6217873;23;20157;-72
2022/07/27 03:14:11;;;;;;;15.10;14.43;;;21.00;24.60;;;;;;6218131;23;20648;-72
2022/07/27 03:16:37;;;;;;;15.30;14.50;;;20.90;24.80;;;;;;6218157;23;20151;-72
2022/07/27 03:19:03;;;;;;;15.10;14.40;;;21.10;24.40;;;;;;6218357;23;20230;-72
2022/07/27 03:21:29;;;;;;;14.00;13.50;;;21.40;23.70;;;;;;6217898;23;20155;-72
2022/07/27 03:23:55;;;;;;;14.30;13.60;;;21.30;23.90;;;;;;6217944;23;20469;-72
2022/07/27 03:26:20;;;;;;;14.30;13.60;;;21.60;23.40;;;;;;6244896;23;20171;-72
2022/07/27 03:28:46;;;;;;;14.63;14.13;;;21.90;23.00;;;;;;6244867;23;20194;-72
2022/07/27 03:31:12;;;;;;;14.97;14.27;;;21.30;24.10;;;;;;6244802;23;20153;-72
2022/07/27 03:33:38;;;;;;;15.77;14.70;;;20.90;24.90;;;;;;6218026;23;20195;-72
2022/07/27 03:36:04;;;;;;;14.60;14.00;;;21.20;24.40;;;;;;6218099;23;20159;-72
2022/07/27 03:38:30;;;;;;;15.50;14.87;;;20.90;25.00;;;;;;6218122;23;20155;-72
2022/07/27 03:40:55;;;;;;;16.20;15.50;;;20.50;25.80;;;;;;6217547;23;20995;-72
2022/07/27 03:43:21;;;;;;;14.50;13.90;;;20.40;26.10;;;;;;6218135;23;20155;-72
2022/07/27 03:45:47;;;;;;;14.47;13.97;;;20.30;26.60;;;;;;6218120;23;20229;-72
2022/07/27 03:48:13;;;;;;;15.83;15.13;;;20.20;26.80;;;;;;6218064;23;20627;-72
2022/07/27 03:50:39;;;;;;;14.90;14.30;;;20.80;25.70;;;;;;6244404;23;20167;-72
2022/07/27 03:53:05;;;;;;;16.67;15.97;;;21.20;24.70;;;;;;6217986;23;20209;-72
2022/07/27 03:55:30;;;;;;;16.30;15.50;;;21.40;24.20;;;;;;6217904;23;20389;-72
2022/07/27 03:57:56;;;;;;;15.50;14.90;;;21.20;24.80;;;;;;6218322;23;20835;-72
2022/07/27 04:00:22;;;;;;;16.73;16.13;;;21.40;24.30;;;;;;6217606;23;20155;-72
2022/07/27 04:02:48;;;;;;;16.40;15.80;;;20.90;25.50;;;;;;6219092;23;20155;-72
2022/07/27 04:05:14;;;;;;;17.20;16.13;;;20.70;25.70;;;;;;6242994;23;20430;-72
2022/07/27 04:07:39;;;;;;;16.13;15.53;;;20.70;25.80;;;;;;6218379;23;20152;-72
2022/07/27 04:10:07;;;;;;;17.13;16.27;;;21.00;25.30;;;;;;6217859;23;20618;-72
2022/07/27 04:12:36;;;;;;;17.47;16.77;;;21.00;25.50;;;;;;6244666;23;20402;-72
2022/07/27 04:15:03;;;;;;;16.60;15.90;;;21.30;24.70;;;;;;6217797;23;20378;-72
2022/07/27 04:17:29;;;;;;;16.10;15.33;;;21.50;24.20;;;;;;6218391;23;20465;-72
2022/07/27 04:19:55;;;;;;;17.30;16.30;;;21.60;24.40;;;;;;6217541;23;20471;-72
2022/07/27 04:22:21;;;;;;;17.30;16.67;;;21.60;23.90;;;;;;6217865;23;20378;-72
2022/07/27 04:24:46;;;;;;;17.10;16.30;;;21.70;23.70;;;;;;6245307;23;20217;-72
2022/07/27 04:27:12;;;;;;;16.83;16.13;;;21.70;23.80;;;;;;6219708;23;20212;-72
2022/07/27 04:29:38;;;;;;;17.13;16.20;;;21.70;24.10;;;;;;6219945;23;20156;-72
2022/07/27 04:32:04;;;;;;;16.77;16.07;;;21.80;24.10;;;;;;6219372;23;20579;-72
2022/07/27 04:34:30;;;;;;;16.73;16.13;;;21.70;24.20;;;;;;6219548;23;20210;-72
2022/07/27 04:36:55;;;;;;;16.70;15.90;;;21.70;23.90;;;;;;6219974;23;20755;-72
2022/07/27 04:39:21;;;;;;;16.80;16.20;;;21.80;24.00;;;;;;6219657;23;20159;-72
2022/07/27 04:41:56;;;;;;;16.80;16.00;;;21.80;24.00;;;;;;6220570;23;20159;-68
2022/07/27 04:44:31;;;;;;;17.30;16.40;;;21.80;24.10;;;;;;6246476;23;20358;-68
2022/07/27 04:46:56;;;;;;;17.43;16.73;;;21.70;24.20;;;;;;6219544;23;20496;-68
2022/07/27 04:52:01;;;;;;;17.13;16.43;;;21.60;24.40;;;;;;6245030;22;20265;-63
2022/07/27 04:54:27;;;;;;;16.27;15.53;;;21.50;24.80;;;;;;6219898;23;20382;-63
2022/07/27 04:56:53;;;;;;;17.40;16.63;;;21.50;24.70;;;;;;6219382;23;20393;-62
2022/07/27 04:59:18;;;;;;;16.80;16.20;;;21.50;24.80;;;;;;6219544;23;20186;-63
2022/07/27 05:01:44;;;;;;;17.70;17.00;;;21.50;25.00;;;;;;6243768;23;20166;-72
2022/07/27 05:04:10;;;;;;;17.50;16.77;;;21.50;24.90;;;;;;6219300;23;20211;-72
2022/07/27 05:06:35;;;;;;;17.27;16.57;;;21.50;25.00;;;;;;6219161;23;20555;-62
2022/07/27 05:09:01;;;;;;;17.00;16.40;;;21.60;25.00;;;;;;6219138;23;20183;-62
2022/07/27 05:11:26;;;;;;;17.47;16.77;;;21.50;25.20;;;;;;6218910;23;20488;-63
2022/07/27 05:13:52;;;;;;;18.03;17.33;;;21.60;24.80;;;;;;6219182;23;20234;-63
2022/07/27 05:16:18;;;;;;;18.50;17.70;;;21.50;25.10;;;;;;6219112;23;20151;-72
2022/07/27 05:18:44;;;;;;;18.20;17.30;;;21.50;25.20;;;;;;6219611;23;20159;-72
2022/07/27 05:21:10;;;;;;;18.50;17.60;;;21.60;25.20;;;;;;6218811;23;20213;-72
2022/07/27 05:23:36;;;;;;;18.33;17.47;;;21.50;25.00;;;;;;6219132;23;20378;-72
2022/07/27 05:26:02;;;;;;;18.37;17.57;;;21.50;25.90;;;;;;6218829;23;20303;-72
2022/07/27 05:28:28;;;;;;;17.57;16.67;;;21.60;25.10;;;;;;6218937;23;20905;-72
2022/07/27 05:30:53;;;;;;;17.97;16.97;;;21.50;25.20;;;;;;6218552;23;20383;-72
2022/07/27 05:33:19;;;;;;;19.20;18.40;;;21.50;25.20;;;;;;6219078;23;20156;-71
2022/07/27 05:35:45;;;;;;;18.43;17.70;;;21.60;26.10;;;;;;6244084;23;20672;-71
2022/07/27 05:38:10;;;;;;;17.90;17.10;;;21.60;25.30;;;;;;6219116;23;20155;-71
2022/07/27 05:40:37;;;;;;;18.37;17.67;;;21.60;25.10;;;;;;6218620;23;20155;-72
2022/07/27 05:43:03;;;;;;;17.63;16.93;;;21.60;25.30;;;;;;6218972;23;20612;-72
2022/07/27 05:45:28;;;;;;;17.93;17.17;;;21.70;25.40;;;;;;6218590;23;20414;-71
2022/07/27 05:47:54;;;;;;;17.30;16.50;;;21.70;25.30;;;;;;6244102;23;20162;-72
2022/07/27 05:50:19;;;;;;;18.90;18.00;;;21.30;26.20;;;;;;6218523;23;20167;-72
2022/07/27 05:52:45;;;;;;;17.20;16.50;;;21.30;25.90;;;;;;6218648;23;20156;-70
2022/07/27 05:55:11;;;;;;;17.80;17.00;;;21.50;25.80;;;;;;6218806;23;20186;-72
2022/07/27 05:57:37;;;;;;;18.00;17.30;;;21.60;25.60;;;;;;6245537;23;20155;-71
2022/07/27 06:00:05;;;;;;;19.30;18.50;;;21.60;25.40;;;;;;6218531;23;20465;-70
2022/07/27 06:02:31;;;;;;;18.43;17.63;;;21.60;25.50;;;;;;6218548;23;20378;-69
2022/07/27 06:04:56;;;;;;;18.60;17.70;;;21.70;25.10;;;;;;6218513;23;20834;-69
2022/07/27 06:10:07;;;;;;;17.70;17.00;;;21.60;25.60;;;;;;6245456;23;20412;-70
2022/07/27 06:12:41;;;;;;;17.67;16.77;;;21.70;25.60;;;;;;6245376;23;20365;-70
2022/07/27 06:15:08;;;;;;;17.33;16.40;;;21.70;25.30;;;;;;6218728;23;20719;-71
2022/07/27 06:17:35;;;;;;;17.40;16.60;;;21.80;25.50;;;;;;6218527;23;20406;-63
2022/07/27 06:20:02;;;;;;;18.20;17.30;;;21.80;25.00;;;;;;6218259;23;20712;-64
2022/07/27 06:22:27;;;;;;;18.60;17.70;;;21.80;25.00;;;;;;6218351;23;20385;-64
2022/07/27 06:24:53;;;;;;;16.90;16.20;;;21.70;25.20;;;;;;6218526;23;20378;-64
2022/07/27 06:27:19;;;;;;;17.37;16.50;;;21.70;25.50;;;;;;6218342;23;20151;-63
2022/07/27 06:29:45;;;;;;;16.90;16.10;;;21.70;25.40;;;;;;6218487;23;20355;-63
2022/07/27 06:32:10;;;;;;;18.23;17.33;;;21.80;25.30;;;;;;6218642;23;20382;-62
2022/07/27 06:34:36;;;;;;;17.70;16.90;;;21.70;25.30;;;;;;6218824;23;20569;-62
2022/07/27 06:37:01;;;;;;;17.27;16.57;;;21.20;26.50;;;;;;6218549;23;20182;-62
2022/07/27 06:39:28;;;;;;;17.10;16.30;;;21.30;27.00;;;;;;6218659;23;20155;-63
2022/07/27 06:41:54;;;;;;;18.37;17.30;;;21.20;26.70;;;;;;6218450;23;20159;-62
2022/07/27 06:44:20;;;;;;;17.70;16.87;;;21.40;26.50;;;;;;6218857;23;20400;-62
2022/07/27 06:46:46;;;;;;;17.23;16.43;;;21.50;25.90;;;;;;6218325;23;20410;-62
2022/07/27 06:49:12;;;;;;;16.50;15.80;;;21.60;25.60;;;;;;6218356;23;20177;-62
2022/07/27 06:51:38;;;;;;;16.40;15.60;;;21.80;25.30;;;;;;6217925;23;20175;-63
2022/07/27 06:54:04;;;;;;;17.90;17.00;;;21.90;25.00;;;;;;6215801;23;20414;-63
2022/07/27 06:56:30;;;;;;;18.00;17.10;;;21.80;25.30;;;;;;6217122;23;20370;-63
2022/07/27 06:58:56;;;;;;;17.87;17.00;;;21.40;26.20;;;;;;6216988;23;20405;-63
2022/07/27 07:01:22;;;;;;;17.40;16.70;;;21.10;26.80;;;;;;6216664;23;20397;-62
2022/07/27 07:03:47;;;;;;;17.00;16.30;;;21.20;26.80;;;;;;6216511;23;20166;-62
2022/07/27 07:06:13;;;;;;;17.80;17.00;;;21.50;26.20;;;;;;6217373;23;20178;-63
2022/07/27 07:08:39;;;;;;;17.10;16.30;;;21.50;26.40;;;;;;6213576;23;20591;-62
2022/07/27 07:11:05;;;;;;;17.63;16.77;;;21.70;25.60;;;;;;6217336;23;20389;-63
2022/07/27 07:13:30;;;;;;;18.30;17.07;;;21.70;25.60;;;;;;6217730;23;20152;-63
2022/07/27 07:15:56;;;;;;;17.80;17.00;;;21.90;25.50;;;;;;6217569;23;20541;-63
2022/07/27 07:18:22;;;;;;;17.10;16.40;;;22.00;25.30;;;;;;6216678;23;20159;-63
2022/07/27 07:20:47;;;;;;;17.00;16.40;;;22.00;25.10;;;;;;6215457;23;20159;-71
2022/07/27 07:23:13;;;;;;;17.27;16.47;;;22.10;25.10;;;;;;6216276;23;20159;-73
2022/07/27 07:25:39;;;;;;;17.37;16.57;;;22.20;24.90;;;;;;6216654;23;20183;-71
2022/07/27 07:28:06;;;;;;;16.50;15.77;;;22.10;24.90;;;;;;6215302;23;20497;-72
2022/07/27 07:30:32;;;;;;;17.73;16.93;;;22.20;24.90;;;;;;6214479;23;20378;-72
2022/07/27 07:32:58;;;;;;;18.50;17.50;;;22.30;24.70;;;;;;6214696;23;20370;-72
2022/07/27 07:35:24;;;;;;;18.23;17.33;;;22.10;24.60;;;;;;6216056;23;20448;-62
2022/07/27 07:37:50;;;;;;;17.77;17.07;;;22.00;25.30;;;;;;6216114;23;20435;-63
2022/07/27 07:40:16;;;;;;;17.77;17.03;;;22.10;25.00;;;;;;6215818;23;20481;-62
2022/07/27 07:42:51;;;;;;;17.87;17.07;;;22.20;24.70;;;;;;6216513;23;20385;-63
2022/07/27 07:45:17;;;;;;;17.57;16.87;;;22.20;24.80;;;;;;6242072;23;20615;-72
2022/07/27 07:47:43;;;;;;;17.20;16.50;;;22.20;24.90;;;;;;6216577;23;20388;-73
2022/07/27 07:50:08;;;;;;;17.23;16.37;;;22.20;24.90;;;;;;6216530;23;20171;-72
2022/07/27 07:52:34;;;;;;;17.90;17.10;;;22.10;24.90;;;;;;6217514;23;20374;-72
2022/07/27 07:55:00;;;;;;;17.63;16.90;;;22.00;25.10;;;;;;6216514;23;20174;-73
2022/07/27 07:57:25;;;;;;;17.50;16.80;;;22.00;25.10;;;;;;6216534;23;20187;-73
2022/07/27 07:59:51;;;;;;;17.70;16.90;;;21.90;25.50;;;;;;6218655;23;20468;-73
2022/07/27 08:02:16;;;;;;;18.60;17.70;;;21.90;25.70;;;;;;6218791;23;20237;-74
2022/07/27 08:04:42;;;;;;;18.43;17.63;;;22.00;25.20;;;;;;6219016;23;20155;-73
2022/07/27 08:07:08;;;;;;;18.47;17.67;;;21.90;25.70;;;;;;6218759;23;20261;-71
2022/07/27 08:09:33;;;;;;;17.73;16.93;;;21.80;25.70;;;;;;6218904;23;20151;-72
2022/07/27 08:11:59;;;;;;;18.87;17.97;;;21.90;25.80;;;;;;6218585;23;20530;-72
2022/07/27 08:14:25;;;;;;;19.00;18.20;;;22.10;25.50;;;;;;6218866;23;20159;-72
2022/07/27 08:16:51;;;;;;;18.13;17.10;;;22.20;24.90;;;;;;6218723;23;20235;-72
2022/07/27 08:19:17;;;;;;;19.60;18.67;;;22.20;25.20;;;;;;6218800;23;20842;-73
2022/07/27 08:21:43;;;;;;;18.53;17.83;;;22.20;25.00;;;;;;6218528;23;20395;-73
2022/07/27 08:24:09;;;;;;;18.37;17.57;;;22.30;25.10;;;;;;6218727;23;20191;-72
2022/07/27 08:26:35;;;;;;;18.07;17.20;;;22.30;25.00;;;;;;6218625;23;20421;-73
2022/07/27 08:29:01;;;;;;;18.30;17.50;;;22.30;25.00;;;;;;6245800;23;20750;-73
2022/07/27 08:31:26;;;;;;;18.70;17.90;;;22.10;25.50;;;;;;6218429;23;20152;-72
2022/07/27 08:33:52;;;;;;;18.67;17.97;;;22.00;25.90;;;;;;6218413;23;20156;-72
2022/07/27 08:36:17;;;;;;;19.07;18.10;;;22.00;25.80;;;;;;6218681;23;20162;-73
2022/07/27 08:38:43;;;;;;;18.70;17.70;;;22.20;25.00;;;;;;6218439;23;20491;-74
2022/07/27 08:41:12;;;;;;;18.20;17.30;;;22.20;25.00;;;;;;6218348;23;20163;-73
2022/07/27 08:43:41;;;;;;;18.23;17.03;;;22.30;25.10;;;;;;6218329;23;20162;-72
2022/07/27 08:46:09;;;;;;;18.77;17.87;;;22.30;25.00;;;;;;6218298;23;20960;-72
2022/07/27 08:48:36;;;;;;;19.10;18.10;;;22.20;25.00;;;;;;6218538;23;20374;-72
2022/07/27 08:51:02;;;;;;;19.30;18.33;;;22.30;25.00;;;;;;6217923;23;20400;-63
2022/07/27 08:53:30;;;;;;;18.80;17.97;;;22.50;24.60;;;;;;6218405;23;20726;-63
2022/07/27 08:55:56;;;;;;;17.60;16.83;;;22.50;24.50;;;;;;6218303;23;20209;-63
2022/07/27 08:58:22;;;;;;;19.20;18.30;;;22.60;24.20;;;;;;6218321;23;20394;-63
2022/07/27 09:00:51;;;;;;;18.47;17.53;;;22.60;24.00;;;;;;6218977;23;20213;-63
2022/07/27 09:03:19;;;;;;;19.33;18.33;;;22.70;24.00;;;;;;6219030;23;20409;-62
2022/07/27 09:05:50;;;;;;;19.20;18.10;;;22.60;24.30;;;;;;6219066;23;20734;-63
2022/07/27 09:08:24;;;;;;;18.50;17.70;;;22.60;24.40;;;;;;6219270;23;20432;-63
2022/07/27 09:10:53;;;;;;;18.30;17.60;;;22.70;24.30;;;;;;6218543;23;20737;-62
2022/07/27 09:13:21;;;;;;;18.07;17.37;;;22.70;24.20;;;;;;6219063;23;20389;-63
2022/07/27 09:15:49;;;;;;;18.43;17.63;;;22.90;23.60;;;;;;6244303;23;20382;-63
2022/07/27 09:18:21;;;;;;;19.40;18.50;;;22.60;23.90;;;;;;6219061;23;20704;-63
2022/07/27 09:21:22;;;;;;;19.10;18.30;;;22.80;23.60;;;;;;6218774;23;20374;-63
2022/07/27 09:24:04;;;;;;;19.00;18.30;;;22.80;23.60;;;;;;6218947;23;20389;-62
2022/07/27 09:26:29;;;;;;;19.47;18.47;;;22.80;23.60;;;;;;6219022;23;20467;-63
2022/07/27 09:28:58;;;;;;;19.10;18.30;;;22.80;23.90;;;;;;6219009;23;20910;-63
2022/07/27 09:31:24;;;;;;;18.20;17.47;;;22.40;24.60;;;;;;6218899;23;20510;-63
2022/07/27 09:33:53;;;;;;;18.70;17.90;;;22.50;24.20;;;;;;6218732;23;20421;-63
2022/07/27 09:36:21;;;;;;;18.10;17.10;;;22.70;23.50;;;;;;6218784;23;20381;-63
2022/07/27 09:39:05;;;;;;;17.90;17.20;;;22.90;23.60;;;;;;6218770;23;20394;-63
2022/07/27 09:41:49;;;;;;;17.50;16.80;;;23.00;22.90;;;;;;6218736;23;20378;-63
2022/07/27 09:44:16;;;;;;;19.23;18.13;;;23.10;23.30;;;;;;6244118;23;20397;-63
2022/07/27 09:46:45;;;;;;;18.83;17.80;;;23.10;23.80;;;;;;6218637;23;20425;-63
2022/07/27 09:49:32;;;;;;;18.13;17.23;;;23.10;23.80;;;;;;6218749;23;20382;-63
2022/07/27 09:52:00;;;;;;;18.60;17.80;;;23.20;23.00;;;;;;6217648;23;20470;-63
2022/07/27 09:54:26;;;;;;;19.07;17.97;;;23.10;22.90;;;;;;6218177;23;20402;-62
2022/07/27 09:57:02;;;;;;;18.90;18.00;;;23.10;23.70;;;;;;6217803;23;20719;-63
2022/07/27 09:59:28;;;;;;;18.00;17.30;;;23.20;22.60;;;;;;6217696;23;20461;-63
2022/07/27 10:01:56;;;;;;;18.50;17.70;;;23.20;22.50;;;;;;6217267;23;20465;-63
2022/07/27 10:04:22;;;;;;;18.47;17.67;;;23.10;22.70;;;;;;6217718;23;20421;-64
2022/07/27 10:06:48;;;;;;;17.93;17.17;;;23.30;22.50;;;;;;6244174;23;20949;-63
2022/07/27 10:09:14;;;;;;;17.83;17.03;;;23.40;22.20;;;;;;6214873;23;20441;-63
2022/07/27 10:11:40;;;;;;;17.93;17.17;;;23.60;22.00;;;;;;6217243;23;20234;-63
2022/07/27 10:14:06;;;;;;;18.03;17.23;;;23.80;21.80;;;;;;6214295;23;20159;-62
2022/07/27 10:16:33;;;;;;;17.80;17.10;;;24.00;21.50;;;;;;6216020;23;20386;-63
2022/07/27 10:19:05;;;;;;;17.70;16.80;;;24.10;21.50;;;;;;6217347;23;20378;-63
2022/07/27 10:21:36;;;;;;;18.07;17.33;;;24.00;21.70;;;;;;6242445;23;20385;-62
2022/07/27 10:24:04;;;;;;;18.07;17.20;;;24.20;20.70;;;;;;6217405;23;20715;-63
2022/07/27 10:26:41;;;;;;;18.07;16.97;;;24.30;20.30;;;;;;6217662;23;20420;-62
2022/07/27 10:29:13;;;;;;;18.70;17.97;;;24.10;20.20;;;;;;6217517;23;20384;-63
2022/07/27 10:31:58;;;;;;;18.27;16.80;;;24.00;20.70;;;;;;6242160;23;20465;-63
2022/07/27 10:34:40;;;;;;;17.23;16.57;;;23.90;20.90;;;;;;6217554;23;20843;-62
2022/07/27 10:37:11;;;;;;;18.43;17.53;;;24.10;20.50;;;;;;6217385;23;20428;-62
2022/07/27 10:39:41;;;;;;;18.80;17.67;;;24.10;19.90;;;;;;6216357;23;20864;-62
2022/07/27 10:42:24;;;;;;;17.87;16.70;;;24.20;19.80;;;;;;6216432;23;20408;-62
2022/07/27 10:44:54;;;;;;;18.27;17.47;;;24.10;19.90;;;;;;6241937;23;20441;-63
2022/07/27 10:47:30;;;;;;;16.93;16.13;;;24.50;20.30;;;;;;6241650;23;20451;-63
2022/07/27 10:50:11;;;;;;;17.17;16.37;;;24.60;20.10;;;;;;6216797;23;20389;-63
2022/07/27 10:52:42;;;;;;;17.00;16.10;;;24.60;19.30;;;;;;6241164;23;20462;-63
2022/07/27 10:55:28;;;;;;;16.73;15.87;;;24.60;19.70;;;;;;6241460;23;20417;-63
2022/07/27 10:58:14;;;;;;;16.90;16.10;;;24.50;19.60;;;;;;6216591;23;20823;-62
2022/07/27 11:00:49;;;;;;;17.70;16.70;;;24.20;19.50;;;;;;6181550;23;20431;-62
2022/07/27 11:03:29;;;;;;;16.63;15.83;;;24.30;19.80;;;;;;6242192;23;20393;-63
2022/07/27 11:05:58;;;;;;;16.57;15.77;;;24.30;19.60;;;;;;6241897;23;20505;-63
2022/07/27 11:08:29;;;;;;;16.27;15.60;;;24.30;19.30;;;;;;6242361;23;20473;-62
2022/07/27 11:10:55;;;;;;;15.50;14.97;;;24.40;18.40;;;;;;6216858;23;20375;-63
2022/07/27 11:13:22;;;;;;;15.43;14.90;;;24.40;18.40;;;;;;6217123;23;20912;-62
2022/07/27 11:15:54;;;;;;;16.37;15.37;;;24.40;17.10;;;;;;6216896;23;20158;-62
2022/07/27 11:18:30;;;;;;;15.47;14.87;;;24.40;18.00;;;;;;6242766;23;20382;-62
2022/07/27 11:21:25;;;;;;;15.90;14.90;;;24.40;18.70;;;;;;6218064;23;20382;-63
2022/07/27 11:23:58;;;;;;;14.93;14.30;;;24.40;18.40;;;;;;6217893;23;20465;-62
2022/07/27 11:26:27;;;;;;;15.17;14.57;;;24.40;18.00;;;;;;6217978;23;20414;-63
2022/07/27 11:28:53;;;;;;;14.73;14.20;;;24.30;17.80;;;;;;6217823;23;20389;-63
2022/07/27 11:31:19;;;;;;;15.03;14.40;;;24.40;17.60;;;;;;6217660;23;20374;-62
2022/07/27 11:33:48;;;;;;;15.10;14.40;;;24.30;17.40;;;;;;6217680;23;20401;-62
2022/07/27 11:36:14;;;;;;;15.60;14.90;;;24.30;16.40;;;;;;6243110;23;20418;-63
2022/07/27 11:38:51;;;;;;;16.27;15.50;;;24.30;17.60;;;;;;6217624;23;20393;-62
2022/07/27 11:41:25;;;;;;;15.03;14.50;;;24.30;17.10;;;;;;6217712;23;20209;-62
2022/07/27 11:43:51;;;;;;;15.20;14.40;;;24.50;17.60;;;;;;6216491;23;20382;-64
2022/07/27 11:56:35;;;;;;;15.50;14.60;;;24.50;16.70;;;;;;6244086;23;20426;-73
2022/07/27 11:59:09;;;;;;;14.70;14.10;;;24.50;17.20;;;;;;6216656;23;20389;-73
2022/07/27 12:01:42;;;;;;;15.30;14.70;;;24.50;16.60;;;;;;6216601;23;20717;-73
2022/07/27 12:11:59;;;;;;;;;;;;;;;;;;;;;
2022/07/27 12:14:35;;;;;;;15.57;14.60;;;24.30;16.40;;;;;;6103160;23;20484;-73
2022/07/27 12:20:57;;;;;;;15.13;14.53;;;24.30;16.30;;;;;;6243079;23;20672;-73
2022/07/27 12:23:28;;;;;;;15.10;14.13;;;24.30;16.00;;;;;;6244397;23;20835;-72
2022/07/27 12:30:14;;;;;;;;;;;;;;;;;;;;;
2022/07/27 12:32:44;;;;;;;14.20;13.60;;;24.40;15.60;;;;;;6215612;23;20481;-72
2022/07/27 12:35:31;;;;;;;14.13;13.63;;;24.40;15.30;;;;;;6218334;23;20417;-73
2022/07/27 12:38:58;;;;;;;14.10;13.60;;;24.50;14.00;;;;;;6217832;23;20382;-72
2022/07/27 12:41:30;;;;;;;14.13;13.57;;;24.60;13.90;;;;;;6242061;23;20856;-73
2022/07/27 12:51:41;;;;;;;15.10;14.40;;;24.70;14.40;;;;;;6245289;23;20473;-72
2022/07/27 12:58:05;;;;;;;;;;;;;;;;;;;;;
2022/07/27 13:04:39;;;;;;;15.27;14.57;;;24.50;16.10;;;;;;6225964;23;20378;-72
2022/07/27 13:07:21;;;;;;;15.50;14.80;;;24.60;16.20;;;;;;6093940;23;20488;-72
2022/07/27 13:09:59;;;;;;;14.60;14.00;;;24.60;16.20;;;;;;6069106;23;20387;-73
2022/07/27 13:13:03;;;;;;;18.00;17.03;;;24.70;16.10;;;;;;6201899;23;20409;-73
2022/07/27 13:15:53;;;;;;;15.10;14.40;;;24.90;15.40;;;;;;6244770;23;20393;-69
2022/07/27 13:35:07;;;;;;;14.63;14.00;;;24.70;14.90;;;;;;6065401;23;20347;-69
2022/07/27 13:37:32;;;;;;;14.93;14.40;;;24.70;14.50;;;;;;6064657;23;20515;-69
2022/07/27 13:39:58;;;;;;;15.20;14.60;;;24.80;14.30;;;;;;6116177;23;20393;-69
2022/07/27 13:42:24;;;;;;;15.00;14.50;;;24.80;14.80;;;;;;6184142;23;20850;-69